sensor_id;sensor_type;location;lat;lon;timestamp;temperature;humidity
27978;DHT22;15314;49.248;6.968;2023-04-01T00:00:35;10.30;99.90
27978;DHT22;15314;49.248;6.968;2023-04-01T00:01:36;10.20;99.90
27978;DHT22;15314;49.248;6.968;2023-04-01T00:02:37;10.20;99.90
27978;DHT22;15314;49.248;6.968;2023-04-01T00:03:37;10.20;99.90
27978;DHT22;15314;49.248;6.968;2023-04-01T00:04:38;10.20;99.90
27978;DHT22;15314;49.248;6.968;2023-04-01T00:05:39;10.20;99.90
27978;DHT22;15314;49.248;6.968;2023-04-01T00:06:39;10.20;99.90
27978;DHT22;15314;49.248;6.968;2023-04-01T00:07:40;10.20;99.90
27978;DHT22;15314;49.248;6.968;2023-04-01T00:08:41;10.20;99.90
27978;DHT22;15314;49.248;6.968;2023-04-01T00:09:41;10.30;99.90
27978;DHT22;15314;49.248;6.968;2023-04-01T00:10:44;10.20;99.90
27978;DHT22;15314;49.248;6.968;2023-04-01T00:11:45;10.20;99.90
27978;DHT22;15314;49.248;6.968;2023-04-01T00:12:46;10.20;99.90
27978;DHT22;15314;49.248;6.968;2023-04-01T00:13:47;10.30;99.90
27978;DHT22;15314;49.248;6.968;2023-04-01T00:14:47;10.20;99.90
27978;DHT22;15314;49.248;6.968;2023-04-01T00:15:48;10.30;99.90
27978;DHT22;15314;49.248;6.968;2023-04-01T00:16:49;10.30;99.90
27978;DHT22;15314;49.248;6.968;2023-04-01T00:17:50;10.30;99.90
27978;DHT22;15314;49.248;6.968;2023-04-01T00:18:51;10.30;99.90
27978;DHT22;15314;49.248;6.968;2023-04-01T00:19:54;10.30;99.90
27978;DHT22;15314;49.248;6.968;2023-04-01T00:20:54;10.30;99.90
27978;DHT22;15314;49.248;6.968;2023-04-01T00:21:55;10.30;99.90
27978;DHT22;15314;49.248;6.968;2023-04-01T00:22:56;10.30;99.90
27978;DHT22;15314;49.248;6.968;2023-04-01T00:23:57;10.40;99.90
27978;DHT22;15314;49.248;6.968;2023-04-01T00:24:58;10.30;99.90
27978;DHT22;15314;49.248;6.968;2023-04-01T00:26:02;10.30;99.90
27978;DHT22;15314;49.248;6.968;2023-04-01T00:27:03;10.30;99.90
27978;DHT22;15314;49.248;6.968;2023-04-01T00:28:04;10.30;99.90
27978;DHT22;15314;49.248;6.968;2023-04-01T00:29:05;10.30;99.90
27978;DHT22;15314;49.248;6.968;2023-04-01T00:30:06;10.30;99.90
27978;DHT22;15314;49.248;6.968;2023-04-01T00:31:09;10.30;99.90
27978;DHT22;15314;49.248;6.968;2023-04-01T00:32:10;10.30;99.90
27978;DHT22;15314;49.248;6.968;2023-04-01T00:33:11;10.30;99.90
27978;DHT22;15314;49.248;6.968;2023-04-01T00:34:12;10.40;99.90
27978;DHT22;15314;49.248;6.968;2023-04-01T00:35:13;10.40;99.90
27978;DHT22;15314;49.248;6.968;2023-04-01T00:36:16;10.30;99.90
27978;DHT22;15314;49.248;6.968;2023-04-01T00:37:17;10.30;99.90
27978;DHT22;15314;49.248;6.968;2023-04-01T00:38:18;10.30;99.90
27978;DHT22;15314;49.248;6.968;2023-04-01T00:39:22;10.30;99.90
27978;DHT22;15314;49.248;6.968;2023-04-01T00:40:31;10.30;99.90
27978;DHT22;15314;49.248;6.968;2023-04-01T00:41:32;10.30;99.90
27978;DHT22;15314;49.248;6.968;2023-04-01T00:42:32;10.30;99.90
27978;DHT22;15314;49.248;6.968;2023-04-01T00:43:34;10.30;99.90
27978;DHT22;15314;49.248;6.968;2023-04-01T00:44:36;10.40;99.90
27978;DHT22;15314;49.248;6.968;2023-04-01T00:45:40;10.30;99.90
27978;DHT22;15314;49.248;6.968;2023-04-01T00:46:42;10.30;99.90
27978;DHT22;15314;49.248;6.968;2023-04-01T00:47:43;10.30;99.90
27978;DHT22;15314;49.248;6.968;2023-04-01T00:48:54;10.30;99.90
27978;DHT22;15314;49.248;6.968;2023-04-01T00:49:55;10.40;99.90
27978;DHT22;15314;49.248;6.968;2023-04-01T00:51:06;10.30;99.90
27978;DHT22;15314;49.248;6.968;2023-04-01T00:52:11;10.30;99.90
27978;DHT22;15314;49.248;6.968;2023-04-01T00:53:13;10.30;99.90
27978;DHT22;15314;49.248;6.968;2023-04-01T00:54:16;10.30;99.90
27978;DHT22;15314;49.248;6.968;2023-04-01T00:55:19;10.30;99.90
27978;DHT22;15314;49.248;6.968;2023-04-01T00:56:25;10.30;99.90
27978;DHT22;15314;49.248;6.968;2023-04-01T00:57:34;10.30;99.90
27978;DHT22;15314;49.248;6.968;2023-04-01T00:58:39;10.30;99.90
27978;DHT22;15314;49.248;6.968;2023-04-01T00:59:46;10.30;99.90
27978;DHT22;15314;49.248;6.968;2023-04-01T01:00:49;10.30;99.90
27978;DHT22;15314;49.248;6.968;2023-04-01T01:01:51;10.30;99.90
27978;DHT22;15314;49.248;6.968;2023-04-01T01:02:52;10.30;99.90
27978;DHT22;15314;49.248;6.968;2023-04-01T01:03:53;10.30;99.90
27978;DHT22;15314;49.248;6.968;2023-04-01T01:04:53;10.20;99.90
27978;DHT22;15314;49.248;6.968;2023-04-01T01:06:06;10.30;99.90
27978;DHT22;15314;49.248;6.968;2023-04-01T01:09:39;10.30;99.90
27978;DHT22;15314;49.248;6.968;2023-04-01T01:11:14;10.20;99.90
27978;DHT22;15314;49.248;6.968;2023-04-01T01:13:48;10.20;99.90
27978;DHT22;15314;49.248;6.968;2023-04-01T01:16:19;10.20;99.90
27978;DHT22;15314;49.248;6.968;2023-04-01T01:18:03;10.20;99.90
27978;DHT22;15314;49.248;6.968;2023-04-01T01:27:12;10.10;99.90
27978;DHT22;15314;49.248;6.968;2023-04-01T01:31:23;9.90;99.90
27978;DHT22;15314;49.248;6.968;2023-04-01T01:35:19;10.00;99.90
27978;DHT22;15314;49.248;6.968;2023-04-01T01:36:21;10.00;99.90
27978;DHT22;15314;49.248;6.968;2023-04-01T01:37:24;10.00;99.90
27978;DHT22;15314;49.248;6.968;2023-04-01T01:38:29;10.00;99.90
27978;DHT22;15314;49.248;6.968;2023-04-01T01:39:33;10.00;99.90
27978;DHT22;15314;49.248;6.968;2023-04-01T01:40:36;10.00;99.90
27978;DHT22;15314;49.248;6.968;2023-04-01T01:41:41;10.00;99.90
27978;DHT22;15314;49.248;6.968;2023-04-01T01:42:53;9.90;99.90
27978;DHT22;15314;49.248;6.968;2023-04-01T01:43:56;10.00;99.90
27978;DHT22;15314;49.248;6.968;2023-04-01T01:44:59;10.00;99.90
27978;DHT22;15314;49.248;6.968;2023-04-01T01:46:05;9.90;99.90
27978;DHT22;15314;49.248;6.968;2023-04-01T01:47:07;9.90;99.90
27978;DHT22;15314;49.248;6.968;2023-04-01T01:48:09;9.90;99.90
27978;DHT22;15314;49.248;6.968;2023-04-01T01:49:11;9.90;99.90
27978;DHT22;15314;49.248;6.968;2023-04-01T01:50:14;9.90;99.90
27978;DHT22;15314;49.248;6.968;2023-04-01T01:51:16;9.90;99.90
27978;DHT22;15314;49.248;6.968;2023-04-01T01:52:17;9.90;99.90
27978;DHT22;15314;49.248;6.968;2023-04-01T01:53:18;9.90;99.90
27978;DHT22;15314;49.248;6.968;2023-04-01T01:54:19;9.90;99.90
27978;DHT22;15314;49.248;6.968;2023-04-01T01:55:41;9.80;99.90
27978;DHT22;15314;49.248;6.968;2023-04-01T01:56:45;9.80;99.90
27978;DHT22;15314;49.248;6.968;2023-04-01T01:57:47;9.80;99.90
27978;DHT22;15314;49.248;6.968;2023-04-01T01:58:50;9.80;99.90
27978;DHT22;15314;49.248;6.968;2023-04-01T01:59:56;9.80;99.90
27978;DHT22;15314;49.248;6.968;2023-04-01T02:01:00;9.80;99.90
27978;DHT22;15314;49.248;6.968;2023-04-01T02:02:02;9.80;99.90
27978;DHT22;15314;49.248;6.968;2023-04-01T02:03:08;9.70;99.90
27978;DHT22;15314;49.248;6.968;2023-04-01T02:04:10;9.70;99.90
27978;DHT22;15314;49.248;6.968;2023-04-01T02:05:16;9.70;99.90
27978;DHT22;15314;49.248;6.968;2023-04-01T02:06:21;9.60;99.90
27978;DHT22;15314;49.248;6.968;2023-04-01T02:07:27;9.60;99.90
27978;DHT22;15314;49.248;6.968;2023-04-01T02:09:01;9.60;99.90
27978;DHT22;15314;49.248;6.968;2023-04-01T02:10:03;9.60;99.90
27978;DHT22;15314;49.248;6.968;2023-04-01T02:11:10;9.60;99.90
27978;DHT22;15314;49.248;6.968;2023-04-01T02:12:14;9.60;99.90
27978;DHT22;15314;49.248;6.968;2023-04-01T02:13:24;9.60;99.90
27978;DHT22;15314;49.248;6.968;2023-04-01T02:14:43;9.60;99.90
27978;DHT22;15314;49.248;6.968;2023-04-01T02:15:48;9.60;99.90
27978;DHT22;15314;49.248;6.968;2023-04-01T02:17:54;9.50;99.90
27978;DHT22;15314;49.248;6.968;2023-04-01T02:18:58;9.40;99.90
27978;DHT22;15314;49.248;6.968;2023-04-01T02:21:04;9.50;99.90
27978;DHT22;15314;49.248;6.968;2023-04-01T02:22:08;9.50;99.90
27978;DHT22;15314;49.248;6.968;2023-04-01T02:23:11;9.50;99.90
27978;DHT22;15314;49.248;6.968;2023-04-01T02:24:14;9.50;99.90
27978;DHT22;15314;49.248;6.968;2023-04-01T02:25:35;9.50;99.90
27978;DHT22;15314;49.248;6.968;2023-04-01T02:26:36;9.50;99.90
27978;DHT22;15314;49.248;6.968;2023-04-01T02:27:38;9.50;99.90
27978;DHT22;15314;49.248;6.968;2023-04-01T02:28:38;9.40;99.90
27978;DHT22;15314;49.248;6.968;2023-04-01T02:29:40;9.40;99.90
27978;DHT22;15314;49.248;6.968;2023-04-01T02:30:42;9.40;99.90
27978;DHT22;15314;49.248;6.968;2023-04-01T02:31:44;9.40;99.90
27978;DHT22;15314;49.248;6.968;2023-04-01T02:32:46;9.40;99.90
27978;DHT22;15314;49.248;6.968;2023-04-01T02:33:48;9.40;99.90
27978;DHT22;15314;49.248;6.968;2023-04-01T02:34:49;9.40;99.90
27978;DHT22;15314;49.248;6.968;2023-04-01T02:35:50;9.50;99.90
27978;DHT22;15314;49.248;6.968;2023-04-01T02:36:51;9.50;99.90
27978;DHT22;15314;49.248;6.968;2023-04-01T02:37:53;9.50;99.90
27978;DHT22;15314;49.248;6.968;2023-04-01T02:38:55;9.50;99.90
27978;DHT22;15314;49.248;6.968;2023-04-01T02:40:01;9.50;99.90
27978;DHT22;15314;49.248;6.968;2023-04-01T02:41:02;9.60;99.90
27978;DHT22;15314;49.248;6.968;2023-04-01T02:42:03;9.60;99.90
27978;DHT22;15314;49.248;6.968;2023-04-01T02:43:04;9.50;99.90
27978;DHT22;15314;49.248;6.968;2023-04-01T02:44:05;9.50;99.90
27978;DHT22;15314;49.248;6.968;2023-04-01T02:45:06;9.40;99.90
27978;DHT22;15314;49.248;6.968;2023-04-01T02:46:07;9.50;99.90
27978;DHT22;15314;49.248;6.968;2023-04-01T02:47:08;9.50;99.90
27978;DHT22;15314;49.248;6.968;2023-04-01T02:48:08;9.50;99.90
27978;DHT22;15314;49.248;6.968;2023-04-01T02:49:09;9.50;99.90
27978;DHT22;15314;49.248;6.968;2023-04-01T02:50:10;9.60;99.90
27978;DHT22;15314;49.248;6.968;2023-04-01T02:51:11;9.50;99.90
27978;DHT22;15314;49.248;6.968;2023-04-01T02:52:11;9.50;99.90
27978;DHT22;15314;49.248;6.968;2023-04-01T02:53:12;9.60;99.90
27978;DHT22;15314;49.248;6.968;2023-04-01T02:54:13;9.60;99.90
27978;DHT22;15314;49.248;6.968;2023-04-01T02:55:13;9.60;99.90
27978;DHT22;15314;49.248;6.968;2023-04-01T02:56:14;9.60;99.90
27978;DHT22;15314;49.248;6.968;2023-04-01T02:57:15;9.60;99.90
27978;DHT22;15314;49.248;6.968;2023-04-01T02:58:16;9.60;99.90
27978;DHT22;15314;49.248;6.968;2023-04-01T02:59:17;9.60;99.90
27978;DHT22;15314;49.248;6.968;2023-04-01T03:00:18;9.60;99.90
27978;DHT22;15314;49.248;6.968;2023-04-01T03:01:18;9.60;99.90
27978;DHT22;15314;49.248;6.968;2023-04-01T03:02:19;9.70;99.90
27978;DHT22;15314;49.248;6.968;2023-04-01T03:03:20;9.70;99.90
27978;DHT22;15314;49.248;6.968;2023-04-01T03:04:21;9.60;99.90
27978;DHT22;15314;49.248;6.968;2023-04-01T03:05:21;9.60;99.90
27978;DHT22;15314;49.248;6.968;2023-04-01T03:06:22;9.60;99.90
27978;DHT22;15314;49.248;6.968;2023-04-01T03:07:23;9.60;99.90
27978;DHT22;15314;49.248;6.968;2023-04-01T03:08:24;9.60;99.90
27978;DHT22;15314;49.248;6.968;2023-04-01T03:09:25;9.60;99.90
27978;DHT22;15314;49.248;6.968;2023-04-01T03:10:25;9.70;99.90
27978;DHT22;15314;49.248;6.968;2023-04-01T03:11:26;9.70;99.90
27978;DHT22;15314;49.248;6.968;2023-04-01T03:12:26;9.60;99.90
27978;DHT22;15314;49.248;6.968;2023-04-01T03:13:27;9.60;99.90
27978;DHT22;15314;49.248;6.968;2023-04-01T03:14:28;9.60;99.90
27978;DHT22;15314;49.248;6.968;2023-04-01T03:15:29;9.60;99.90
27978;DHT22;15314;49.248;6.968;2023-04-01T03:16:29;9.60;99.90
27978;DHT22;15314;49.248;6.968;2023-04-01T03:17:30;9.70;99.90
27978;DHT22;15314;49.248;6.968;2023-04-01T03:18:31;9.60;99.90
27978;DHT22;15314;49.248;6.968;2023-04-01T03:19:31;9.70;99.90
27978;DHT22;15314;49.248;6.968;2023-04-01T03:20:32;9.70;99.90
27978;DHT22;15314;49.248;6.968;2023-04-01T03:21:33;9.70;99.90
27978;DHT22;15314;49.248;6.968;2023-04-01T03:22:34;9.70;99.90
27978;DHT22;15314;49.248;6.968;2023-04-01T03:23:35;9.70;99.90
27978;DHT22;15314;49.248;6.968;2023-04-01T03:24:36;9.70;99.90
27978;DHT22;15314;49.248;6.968;2023-04-01T03:25:36;9.70;99.90
27978;DHT22;15314;49.248;6.968;2023-04-01T03:26:37;9.70;99.90
27978;DHT22;15314;49.248;6.968;2023-04-01T03:27:38;9.70;99.90
27978;DHT22;15314;49.248;6.968;2023-04-01T03:28:38;9.70;99.90
27978;DHT22;15314;49.248;6.968;2023-04-01T03:29:39;9.70;99.90
27978;DHT22;15314;49.248;6.968;2023-04-01T03:30:40;9.70;99.90
27978;DHT22;15314;49.248;6.968;2023-04-01T03:31:41;9.70;99.90
27978;DHT22;15314;49.248;6.968;2023-04-01T03:32:41;9.70;99.90
27978;DHT22;15314;49.248;6.968;2023-04-01T03:33:42;9.70;99.90
27978;DHT22;15314;49.248;6.968;2023-04-01T03:34:43;9.70;99.90
27978;DHT22;15314;49.248;6.968;2023-04-01T03:35:44;9.80;99.90
27978;DHT22;15314;49.248;6.968;2023-04-01T03:36:45;9.70;99.90
27978;DHT22;15314;49.248;6.968;2023-04-01T03:37:45;9.70;99.90
27978;DHT22;15314;49.248;6.968;2023-04-01T03:38:46;9.70;99.90
27978;DHT22;15314;49.248;6.968;2023-04-01T03:39:46;9.70;99.90
27978;DHT22;15314;49.248;6.968;2023-04-01T03:40:47;9.70;99.90
27978;DHT22;15314;49.248;6.968;2023-04-01T03:41:48;9.70;99.90
27978;DHT22;15314;49.248;6.968;2023-04-01T03:42:49;9.70;99.90
27978;DHT22;15314;49.248;6.968;2023-04-01T03:43:50;9.70;99.90
27978;DHT22;15314;49.248;6.968;2023-04-01T03:44:50;9.70;99.90
27978;DHT22;15314;49.248;6.968;2023-04-01T03:45:52;9.60;99.90
27978;DHT22;15314;49.248;6.968;2023-04-01T03:46:52;9.60;99.90
27978;DHT22;15314;49.248;6.968;2023-04-01T03:47:54;9.60;99.90
27978;DHT22;15314;49.248;6.968;2023-04-01T03:48:54;9.50;99.90
27978;DHT22;15314;49.248;6.968;2023-04-01T03:49:55;9.60;99.90
27978;DHT22;15314;49.248;6.968;2023-04-01T03:50:56;9.50;99.90
27978;DHT22;15314;49.248;6.968;2023-04-01T03:51:56;9.50;99.90
27978;DHT22;15314;49.248;6.968;2023-04-01T03:52:57;9.50;99.90
27978;DHT22;15314;49.248;6.968;2023-04-01T03:53:57;9.50;99.90
27978;DHT22;15314;49.248;6.968;2023-04-01T03:54:58;9.50;99.90
27978;DHT22;15314;49.248;6.968;2023-04-01T03:56:03;9.50;99.90
27978;DHT22;15314;49.248;6.968;2023-04-01T03:57:05;9.50;99.90
27978;DHT22;15314;49.248;6.968;2023-04-01T03:58:06;9.50;99.90
27978;DHT22;15314;49.248;6.968;2023-04-01T03:59:07;9.50;99.90
27978;DHT22;15314;49.248;6.968;2023-04-01T04:00:09;9.50;99.90
27978;DHT22;15314;49.248;6.968;2023-04-01T04:01:18;9.50;99.90
27978;DHT22;15314;49.248;6.968;2023-04-01T04:02:20;9.50;99.90
27978;DHT22;15314;49.248;6.968;2023-04-01T04:03:21;9.50;99.90
27978;DHT22;15314;49.248;6.968;2023-04-01T04:04:22;9.50;99.90
27978;DHT22;15314;49.248;6.968;2023-04-01T04:05:23;9.50;99.90
27978;DHT22;15314;49.248;6.968;2023-04-01T04:06:25;9.50;99.90
27978;DHT22;15314;49.248;6.968;2023-04-01T04:07:25;9.50;99.90
27978;DHT22;15314;49.248;6.968;2023-04-01T04:08:26;9.50;99.90
27978;DHT22;15314;49.248;6.968;2023-04-01T04:09:27;9.40;99.90
27978;DHT22;15314;49.248;6.968;2023-04-01T04:10:27;9.50;99.90
27978;DHT22;15314;49.248;6.968;2023-04-01T04:11:30;9.50;99.90
27978;DHT22;15314;49.248;6.968;2023-04-01T04:12:31;9.50;99.90
27978;DHT22;15314;49.248;6.968;2023-04-01T04:13:32;9.40;99.90
27978;DHT22;15314;49.248;6.968;2023-04-01T04:14:32;9.40;99.90
27978;DHT22;15314;49.248;6.968;2023-04-01T04:15:33;9.40;99.90
27978;DHT22;15314;49.248;6.968;2023-04-01T04:16:35;9.40;99.90
27978;DHT22;15314;49.248;6.968;2023-04-01T04:17:39;9.30;99.90
27978;DHT22;15314;49.248;6.968;2023-04-01T04:18:40;9.40;99.90
27978;DHT22;15314;49.248;6.968;2023-04-01T04:19:41;9.30;99.90
27978;DHT22;15314;49.248;6.968;2023-04-01T04:20:45;9.30;99.90
27978;DHT22;15314;49.248;6.968;2023-04-01T04:21:51;9.30;99.90
27978;DHT22;15314;49.248;6.968;2023-04-01T04:22:51;9.30;99.90
27978;DHT22;15314;49.248;6.968;2023-04-01T04:23:52;9.30;99.90
27978;DHT22;15314;49.248;6.968;2023-04-01T04:24:53;9.30;99.90
27978;DHT22;15314;49.248;6.968;2023-04-01T04:25:57;9.30;99.90
27978;DHT22;15314;49.248;6.968;2023-04-01T04:26:58;9.30;99.90
27978;DHT22;15314;49.248;6.968;2023-04-01T04:27:58;9.30;99.90
27978;DHT22;15314;49.248;6.968;2023-04-01T04:29:00;9.30;99.90
27978;DHT22;15314;49.248;6.968;2023-04-01T04:30:01;9.30;99.90
27978;DHT22;15314;49.248;6.968;2023-04-01T04:31:02;9.30;99.90
27978;DHT22;15314;49.248;6.968;2023-04-01T04:32:05;9.30;99.90
27978;DHT22;15314;49.248;6.968;2023-04-01T04:33:06;9.30;99.90
27978;DHT22;15314;49.248;6.968;2023-04-01T04:34:06;9.30;99.90
27978;DHT22;15314;49.248;6.968;2023-04-01T04:35:07;9.30;99.90
27978;DHT22;15314;49.248;6.968;2023-04-01T04:36:08;9.30;99.90
27978;DHT22;15314;49.248;6.968;2023-04-01T04:37:09;9.30;99.90
27978;DHT22;15314;49.248;6.968;2023-04-01T04:38:10;9.30;99.90
27978;DHT22;15314;49.248;6.968;2023-04-01T04:39:10;9.30;99.90
27978;DHT22;15314;49.248;6.968;2023-04-01T04:40:11;9.30;99.90
27978;DHT22;15314;49.248;6.968;2023-04-01T04:41:13;9.30;99.90
27978;DHT22;15314;49.248;6.968;2023-04-01T04:42:14;9.30;99.90
27978;DHT22;15314;49.248;6.968;2023-04-01T04:43:16;9.20;99.90
27978;DHT22;15314;49.248;6.968;2023-04-01T04:44:16;9.10;99.90
27978;DHT22;15314;49.248;6.968;2023-04-01T04:45:17;9.20;99.90
27978;DHT22;15314;49.248;6.968;2023-04-01T04:46:18;9.10;99.90
27978;DHT22;15314;49.248;6.968;2023-04-01T04:47:19;9.30;99.90
27978;DHT22;15314;49.248;6.968;2023-04-01T04:48:20;9.10;99.90
27978;DHT22;15314;49.248;6.968;2023-04-01T04:49:21;9.10;99.90
27978;DHT22;15314;49.248;6.968;2023-04-01T04:50:22;9.10;99.90
27978;DHT22;15314;49.248;6.968;2023-04-01T04:51:23;9.20;99.90
27978;DHT22;15314;49.248;6.968;2023-04-01T04:52:24;9.10;99.90
27978;DHT22;15314;49.248;6.968;2023-04-01T04:53:24;9.10;99.90
27978;DHT22;15314;49.248;6.968;2023-04-01T04:54:26;9.10;99.90
27978;DHT22;15314;49.248;6.968;2023-04-01T04:55:27;9.10;99.90
27978;DHT22;15314;49.248;6.968;2023-04-01T04:56:27;9.10;99.90
27978;DHT22;15314;49.248;6.968;2023-04-01T04:57:28;9.00;99.90
27978;DHT22;15314;49.248;6.968;2023-04-01T04:58:29;9.10;99.90
27978;DHT22;15314;49.248;6.968;2023-04-01T04:59:30;9.00;99.90
27978;DHT22;15314;49.248;6.968;2023-04-01T05:00:31;9.10;99.90
27978;DHT22;15314;49.248;6.968;2023-04-01T05:01:32;9.10;99.90
27978;DHT22;15314;49.248;6.968;2023-04-01T05:02:34;9.10;99.90
27978;DHT22;15314;49.248;6.968;2023-04-01T05:03:35;9.10;99.90
27978;DHT22;15314;49.248;6.968;2023-04-01T05:04:36;9.10;99.90
27978;DHT22;15314;49.248;6.968;2023-04-01T05:05:37;9.10;99.90
27978;DHT22;15314;49.248;6.968;2023-04-01T05:06:38;9.10;99.90
27978;DHT22;15314;49.248;6.968;2023-04-01T05:07:39;9.10;99.90
27978;DHT22;15314;49.248;6.968;2023-04-01T05:08:40;9.10;99.90
27978;DHT22;15314;49.248;6.968;2023-04-01T05:09:42;9.10;99.90
27978;DHT22;15314;49.248;6.968;2023-04-01T05:10:42;9.10;99.90
27978;DHT22;15314;49.248;6.968;2023-04-01T05:11:43;9.10;99.90
27978;DHT22;15314;49.248;6.968;2023-04-01T05:12:44;9.10;99.90
27978;DHT22;15314;49.248;6.968;2023-04-01T05:13:45;9.00;99.90
27978;DHT22;15314;49.248;6.968;2023-04-01T05:14:45;9.10;99.90
27978;DHT22;15314;49.248;6.968;2023-04-01T05:15:46;9.10;99.90
27978;DHT22;15314;49.248;6.968;2023-04-01T05:16:47;9.10;99.90
27978;DHT22;15314;49.248;6.968;2023-04-01T05:17:48;9.10;99.90
27978;DHT22;15314;49.248;6.968;2023-04-01T05:18:48;9.10;99.90
27978;DHT22;15314;49.248;6.968;2023-04-01T05:19:49;9.10;99.90
27978;DHT22;15314;49.248;6.968;2023-04-01T05:20:51;9.10;99.90
27978;DHT22;15314;49.248;6.968;2023-04-01T05:21:53;9.10;99.90
27978;DHT22;15314;49.248;6.968;2023-04-01T05:22:57;9.10;99.90
27978;DHT22;15314;49.248;6.968;2023-04-01T05:23:58;9.00;99.90
27978;DHT22;15314;49.248;6.968;2023-04-01T05:24:59;9.10;99.90
27978;DHT22;15314;49.248;6.968;2023-04-01T05:26:07;9.00;99.90
27978;DHT22;15314;49.248;6.968;2023-04-01T05:27:08;9.00;99.90
27978;DHT22;15314;49.248;6.968;2023-04-01T05:28:08;9.10;99.90
27978;DHT22;15314;49.248;6.968;2023-04-01T05:29:10;9.20;99.90
27978;DHT22;15314;49.248;6.968;2023-04-01T05:30:11;9.10;99.90
27978;DHT22;15314;49.248;6.968;2023-04-01T05:31:11;9.10;99.90
27978;DHT22;15314;49.248;6.968;2023-04-01T05:32:12;9.10;99.90
27978;DHT22;15314;49.248;6.968;2023-04-01T05:33:13;9.10;99.90
27978;DHT22;15314;49.248;6.968;2023-04-01T05:34:14;9.10;99.90
27978;DHT22;15314;49.248;6.968;2023-04-01T05:35:15;9.00;99.90
27978;DHT22;15314;49.248;6.968;2023-04-01T05:36:16;9.00;99.90
27978;DHT22;15314;49.248;6.968;2023-04-01T05:37:17;9.00;99.90
27978;DHT22;15314;49.248;6.968;2023-04-01T05:38:17;9.00;99.90
27978;DHT22;15314;49.248;6.968;2023-04-01T05:39:18;9.00;99.90
27978;DHT22;15314;49.248;6.968;2023-04-01T05:40:19;9.00;99.90
27978;DHT22;15314;49.248;6.968;2023-04-01T05:41:19;9.00;99.90
27978;DHT22;15314;49.248;6.968;2023-04-01T05:42:20;9.00;99.90
27978;DHT22;15314;49.248;6.968;2023-04-01T05:43:21;9.00;99.90
27978;DHT22;15314;49.248;6.968;2023-04-01T05:44:21;9.00;99.90
27978;DHT22;15314;49.248;6.968;2023-04-01T05:45:22;9.00;99.90
27978;DHT22;15314;49.248;6.968;2023-04-01T05:46:22;9.10;99.90
27978;DHT22;15314;49.248;6.968;2023-04-01T05:47:23;9.10;99.90
27978;DHT22;15314;49.248;6.968;2023-04-01T05:48:24;9.00;99.90
27978;DHT22;15314;49.248;6.968;2023-04-01T05:49:24;9.00;99.90
27978;DHT22;15314;49.248;6.968;2023-04-01T05:50:25;9.00;99.90
27978;DHT22;15314;49.248;6.968;2023-04-01T05:51:26;9.00;99.90
27978;DHT22;15314;49.248;6.968;2023-04-01T05:52:26;9.00;99.90
27978;DHT22;15314;49.248;6.968;2023-04-01T05:53:27;9.00;99.90
27978;DHT22;15314;49.248;6.968;2023-04-01T05:54:28;9.00;99.90
27978;DHT22;15314;49.248;6.968;2023-04-01T05:55:29;9.00;99.90
27978;DHT22;15314;49.248;6.968;2023-04-01T05:56:29;9.00;99.90
27978;DHT22;15314;49.248;6.968;2023-04-01T05:57:31;9.00;99.90
27978;DHT22;15314;49.248;6.968;2023-04-01T05:58:32;9.00;99.90
27978;DHT22;15314;49.248;6.968;2023-04-01T05:59:32;9.00;99.90
27978;DHT22;15314;49.248;6.968;2023-04-01T06:00:35;8.90;99.90
27978;DHT22;15314;49.248;6.968;2023-04-01T06:01:35;9.00;99.90
27978;DHT22;15314;49.248;6.968;2023-04-01T06:02:36;9.00;99.90
27978;DHT22;15314;49.248;6.968;2023-04-01T06:03:37;9.00;99.90
27978;DHT22;15314;49.248;6.968;2023-04-01T06:04:39;9.00;99.90
27978;DHT22;15314;49.248;6.968;2023-04-01T06:05:42;9.00;99.90
27978;DHT22;15314;49.248;6.968;2023-04-01T06:06:43;9.00;99.90
27978;DHT22;15314;49.248;6.968;2023-04-01T06:07:44;9.00;99.90
27978;DHT22;15314;49.248;6.968;2023-04-01T06:08:45;9.00;99.90
27978;DHT22;15314;49.248;6.968;2023-04-01T06:09:45;9.00;99.90
27978;DHT22;15314;49.248;6.968;2023-04-01T06:12:29;9.00;99.90
27978;DHT22;15314;49.248;6.968;2023-04-01T06:15:00;9.00;99.90
27978;DHT22;15314;49.248;6.968;2023-04-01T06:19:13;9.00;99.90
27978;DHT22;15314;49.248;6.968;2023-04-01T06:23:12;9.10;99.90
27978;DHT22;15314;49.248;6.968;2023-04-01T06:27:33;9.20;99.90
27978;DHT22;15314;49.248;6.968;2023-04-01T06:28:40;9.20;99.90
27978;DHT22;15314;49.248;6.968;2023-04-01T06:31:32;9.20;99.90
27978;DHT22;15314;49.248;6.968;2023-04-01T06:32:43;9.20;99.90
27978;DHT22;15314;49.248;6.968;2023-04-01T06:38:26;9.30;99.90
27978;DHT22;15314;49.248;6.968;2023-04-01T06:41:53;9.40;99.90
27978;DHT22;15314;49.248;6.968;2023-04-01T06:42:51;9.40;99.90
27978;DHT22;15314;49.248;6.968;2023-04-01T06:45:37;9.40;99.90
27978;DHT22;15314;49.248;6.968;2023-04-01T06:50:33;9.40;99.90
27978;DHT22;15314;49.248;6.968;2023-04-01T06:53:12;9.50;99.90
27978;DHT22;15314;49.248;6.968;2023-04-01T06:54:29;9.50;99.90
27978;DHT22;15314;49.248;6.968;2023-04-01T06:55:53;9.50;99.90
27978;DHT22;15314;49.248;6.968;2023-04-01T06:57:02;9.50;99.90
27978;DHT22;15314;49.248;6.968;2023-04-01T06:58:05;9.50;99.90
27978;DHT22;15314;49.248;6.968;2023-04-01T06:59:32;9.50;99.90
27978;DHT22;15314;49.248;6.968;2023-04-01T07:00:46;9.60;99.90
27978;DHT22;15314;49.248;6.968;2023-04-01T07:01:55;9.60;99.90
27978;DHT22;15314;49.248;6.968;2023-04-01T07:03:06;9.60;99.90
27978;DHT22;15314;49.248;6.968;2023-04-01T07:04:22;9.60;99.90
27978;DHT22;15314;49.248;6.968;2023-04-01T07:05:31;9.60;99.90
27978;DHT22;15314;49.248;6.968;2023-04-01T07:06:36;9.60;99.90
27978;DHT22;15314;49.248;6.968;2023-04-01T07:07:43;9.60;99.90
27978;DHT22;15314;49.248;6.968;2023-04-01T07:08:47;9.60;99.90
27978;DHT22;15314;49.248;6.968;2023-04-01T07:09:52;9.60;99.90
27978;DHT22;15314;49.248;6.968;2023-04-01T07:12:01;9.70;99.90
27978;DHT22;15314;49.248;6.968;2023-04-01T07:13:07;9.70;99.90
27978;DHT22;15314;49.248;6.968;2023-04-01T07:14:21;9.70;99.90
27978;DHT22;15314;49.248;6.968;2023-04-01T07:15:27;9.70;99.90
27978;DHT22;15314;49.248;6.968;2023-04-01T07:17:36;9.80;99.90
27978;DHT22;15314;49.248;6.968;2023-04-01T07:20:20;9.80;99.90
27978;DHT22;15314;49.248;6.968;2023-04-01T07:22:10;9.90;99.90
27978;DHT22;15314;49.248;6.968;2023-04-01T07:22:49;9.90;99.90
27978;DHT22;15314;49.248;6.968;2023-04-01T07:23:51;9.80;99.90
27978;DHT22;15314;49.248;6.968;2023-04-01T07:24:55;9.80;99.90
27978;DHT22;15314;49.248;6.968;2023-04-01T07:26:11;9.80;99.90
27978;DHT22;15314;49.248;6.968;2023-04-01T07:27:15;9.80;99.90
27978;DHT22;15314;49.248;6.968;2023-04-01T07:28:16;9.90;99.90
27978;DHT22;15314;49.248;6.968;2023-04-01T07:29:17;10.00;99.90
27978;DHT22;15314;49.248;6.968;2023-04-01T07:30:20;10.00;99.90
27978;DHT22;15314;49.248;6.968;2023-04-01T07:33:42;10.20;99.90
27978;DHT22;15314;49.248;6.968;2023-04-01T07:36:12;10.20;99.90
27978;DHT22;15314;49.248;6.968;2023-04-01T07:37:27;10.20;99.90
27978;DHT22;15314;49.248;6.968;2023-04-01T07:38:54;10.10;99.90
27978;DHT22;15314;49.248;6.968;2023-04-01T07:41:32;10.20;99.90